createdAt,value
2023-04-11T00:00:02.031Z,28.83
2023-04-11T00:01:02.068Z,28.82
2023-04-11T00:02:02.196Z,28.82
2023-04-11T00:03:02.431Z,28.85
2023-04-11T00:04:02.372Z,28.84
2023-04-11T00:05:02.296Z,28.85
2023-04-11T00:06:02.251Z,28.85
2023-04-11T00:07:02.304Z,28.84
2023-04-11T00:08:02.344Z,28.84
2023-04-11T00:09:02.353Z,28.84
2023-04-11T00:10:02.458Z,28.87
2023-04-11T00:11:02.420Z,28.84
2023-04-11T00:12:02.455Z,28.85
2023-04-11T00:13:02.498Z,28.83
2023-04-11T00:14:02.546Z,28.87
2023-04-11T00:15:02.586Z,28.87
2023-04-11T00:16:02.705Z,28.84
2023-04-11T00:17:02.654Z,28.83
2023-04-11T00:18:02.736Z,28.81
2023-04-11T00:19:02.728Z,28.88
2023-04-11T00:20:02.766Z,28.87
2023-04-11T00:21:02.811Z,28.85
2023-04-11T00:22:02.909Z,28.87
2023-04-11T00:23:02.875Z,28.88
2023-04-11T00:24:02.920Z,28.89
2023-04-11T00:25:02.949Z,28.85
2023-04-11T00:26:02.981Z,28.88
2023-04-11T00:27:03.010Z,28.91
2023-04-11T00:28:03.037Z,28.89
2023-04-11T00:29:03.074Z,28.90
2023-04-11T00:30:03.208Z,28.88
2023-04-11T00:31:03.151Z,28.85
2023-04-11T00:32:03.242Z,28.88
2023-04-11T00:33:03.220Z,28.90
2023-04-11T00:34:03.225Z,28.85
2023-04-11T00:35:03.267Z,28.84
2023-04-11T00:36:03.326Z,28.83
2023-04-11T00:37:03.381Z,28.84
2023-04-11T00:38:03.347Z,28.83
2023-04-11T00:39:03.385Z,28.85
2023-04-11T00:40:03.417Z,28.84
2023-04-11T00:41:03.433Z,28.82
2023-04-11T00:42:03.495Z,28.88
2023-04-11T00:43:03.556Z,28.78
2023-04-11T00:44:03.714Z,28.76
2023-04-11T00:45:03.706Z,28.78
2023-04-11T00:46:03.834Z,28.78
2023-04-11T00:47:03.844Z,28.79
2023-04-11T00:48:03.905Z,28.79
2023-04-11T00:49:03.924Z,28.80
2023-04-11T00:50:03.952Z,28.81
2023-04-11T00:51:03.938Z,28.79
2023-04-11T00:52:03.985Z,28.75
2023-04-11T00:53:04.001Z,28.75
2023-04-11T00:54:04.029Z,28.79
2023-04-11T00:55:04.068Z,28.75
2023-04-11T00:56:04.077Z,28.74
2023-04-11T00:57:04.180Z,28.75
2023-04-11T00:58:04.134Z,28.72
2023-04-11T00:59:04.168Z,28.73
2023-04-11T01:00:04.212Z,28.74
2023-04-11T01:01:04.243Z,28.71
2023-04-11T01:02:04.373Z,28.70
2023-04-11T01:03:04.355Z,28.71
2023-04-11T01:04:04.379Z,28.67
2023-04-11T01:05:04.326Z,28.72
2023-04-11T01:06:04.353Z,28.76
2023-04-11T01:07:04.414Z,28.71
2023-04-11T01:08:04.419Z,28.71
2023-04-11T01:09:04.442Z,28.70
2023-04-11T01:10:04.480Z,28.70
2023-04-11T01:11:04.477Z,28.73
2023-04-11T01:12:04.500Z,28.67
2023-04-11T01:13:04.531Z,28.66
2023-04-11T01:14:04.560Z,28.70
2023-04-11T01:15:04.577Z,28.66
2023-04-11T01:16:04.600Z,28.73
2023-04-11T01:17:04.710Z,28.67
2023-04-11T01:18:04.676Z,28.69
2023-04-11T01:19:04.655Z,28.67
2023-04-11T01:20:04.688Z,28.62
2023-04-11T01:21:04.700Z,28.66
2023-04-11T01:22:04.748Z,28.68
2023-04-11T01:23:04.750Z,28.70
2023-04-11T01:24:04.787Z,28.69
2023-04-11T01:25:04.859Z,28.66
2023-04-11T01:26:04.832Z,28.66
2023-04-11T01:27:04.861Z,28.66
2023-04-11T01:28:04.872Z,28.65
2023-04-11T01:29:04.903Z,28.63
2023-04-11T01:30:04.958Z,28.62
2023-04-11T01:31:04.944Z,28.65
2023-04-11T01:32:04.964Z,28.63
2023-04-11T01:33:05.076Z,28.65
2023-04-11T01:34:05.015Z,28.63
2023-04-11T01:35:05.038Z,28.66
2023-04-11T01:36:05.105Z,28.65
2023-04-11T01:37:05.070Z,28.62
2023-04-11T01:38:05.092Z,28.65
2023-04-11T01:39:05.111Z,28.71
2023-04-11T01:40:05.137Z,28.67
2023-04-11T01:41:05.147Z,28.64
2023-04-11T01:42:05.191Z,28.64
2023-04-11T01:43:05.193Z,28.63
2023-04-11T01:44:05.221Z,28.63
2023-04-11T01:45:05.234Z,28.63
2023-04-11T01:46:05.253Z,28.65
2023-04-11T01:47:05.274Z,28.62
2023-04-11T01:48:05.348Z,28.64
2023-04-11T01:49:05.404Z,28.65
2023-04-11T01:50:05.319Z,28.64
2023-04-11T01:51:05.344Z,28.67
2023-04-11T01:52:05.356Z,28.65
2023-04-11T01:53:05.383Z,28.63
2023-04-11T01:54:05.399Z,28.67
2023-04-11T01:55:05.418Z,28.64
2023-04-11T01:56:05.434Z,28.63
2023-04-11T01:57:05.450Z,28.61
2023-04-11T01:58:05.463Z,28.60
2023-04-11T01:59:05.478Z,28.66
2023-04-11T02:00:05.499Z,28.65
2023-04-11T02:01:05.566Z,28.61
2023-04-11T02:02:05.621Z,28.67
2023-04-11T02:03:05.797Z,28.66
2023-04-11T02:04:05.735Z,28.64
2023-04-11T02:05:05.567Z,28.61
2023-04-11T02:06:05.563Z,28.67
2023-04-11T02:07:05.584Z,28.68
2023-04-11T02:08:05.624Z,28.61
2023-04-11T02:09:05.645Z,28.66
2023-04-11T02:10:05.645Z,28.66
2023-04-11T02:11:05.664Z,28.63
2023-04-11T02:12:05.682Z,28.67
2023-04-11T02:13:05.712Z,28.64
2023-04-11T02:14:05.738Z,28.61
2023-04-11T02:15:05.765Z,28.64
2023-04-11T02:16:05.844Z,28.66
2023-04-11T02:17:05.819Z,28.64
2023-04-11T02:18:05.904Z,28.63
2023-04-11T02:19:05.885Z,28.63
2023-04-11T02:20:05.903Z,28.67
2023-04-11T02:21:05.931Z,28.64
2023-04-11T02:22:05.980Z,28.64
2023-04-11T02:23:06.027Z,28.68
2023-04-11T02:24:06.051Z,28.63
2023-04-11T02:25:06.095Z,28.66
2023-04-11T02:26:06.108Z,28.70
2023-04-11T02:27:06.136Z,28.60
2023-04-11T02:28:08.102Z,28.63
2023-04-11T02:29:06.145Z,28.66
2023-04-11T02:30:06.209Z,28.64
2023-04-11T02:31:06.239Z,28.66
2023-04-11T02:32:06.347Z,28.64
2023-04-11T02:33:06.272Z,28.67
2023-04-11T02:34:06.230Z,28.63
2023-04-11T02:35:06.276Z,28.60
2023-04-11T02:36:06.337Z,28.63
2023-04-11T02:37:06.328Z,28.66
2023-04-11T02:38:06.331Z,28.64
2023-04-11T02:39:06.381Z,28.63
2023-04-11T02:40:06.407Z,28.67
2023-04-11T02:41:06.423Z,28.60
2023-04-11T02:42:06.417Z,28.64
2023-04-11T02:43:06.445Z,28.62
2023-04-11T02:44:06.480Z,28.64
2023-04-11T02:45:06.495Z,28.66
2023-04-11T02:46:12.675Z,28.66
2023-04-11T02:47:07.555Z,28.61
2023-04-11T02:48:06.610Z,28.61
2023-04-11T02:49:06.554Z,28.64
2023-04-11T02:50:06.550Z,28.62
2023-04-11T02:51:06.576Z,28.66
2023-04-11T02:52:06.594Z,28.64
2023-04-11T02:53:06.604Z,28.67
2023-04-11T02:54:06.621Z,28.66
2023-04-11T02:55:06.644Z,28.66
2023-04-11T02:56:06.659Z,28.64
2023-04-11T02:57:06.678Z,28.67
2023-04-11T02:58:06.676Z,28.70
2023-04-11T02:59:06.736Z,28.67
2023-04-11T03:00:06.720Z,28.63
2023-04-11T03:01:06.733Z,28.63
2023-04-11T03:02:06.859Z,28.70
2023-04-11T03:03:06.982Z,28.65
2023-04-11T03:04:06.962Z,28.70
2023-04-11T03:05:07.001Z,28.66
2023-04-11T03:06:07.096Z,28.70
2023-04-11T03:07:07.170Z,28.69
2023-04-11T03:08:07.240Z,28.62
2023-04-11T03:09:07.311Z,28.65
2023-04-11T03:10:07.372Z,28.65
2023-04-11T03:11:07.408Z,28.65
2023-04-11T03:12:07.432Z,28.65
2023-04-11T03:13:07.453Z,28.67
2023-04-11T03:14:07.484Z,28.61
2023-04-11T03:15:07.496Z,28.66
2023-04-11T03:16:07.589Z,28.66
2023-04-11T03:17:07.549Z,28.61
2023-04-11T03:18:07.585Z,28.65
2023-04-11T03:19:07.598Z,28.65
2023-04-11T03:20:07.619Z,28.69
2023-04-11T03:21:07.625Z,28.65
2023-04-11T03:22:07.649Z,28.69
2023-04-11T03:23:07.693Z,28.65
2023-04-11T03:24:07.720Z,28.62
2023-04-11T03:25:07.775Z,28.62
2023-04-11T03:26:07.782Z,28.67
2023-04-11T03:27:07.820Z,28.63
2023-04-11T03:28:07.835Z,28.72
2023-04-11T03:29:07.851Z,28.68
2023-04-11T03:30:07.870Z,28.65
2023-04-11T03:31:07.969Z,28.65
2023-04-11T03:32:07.927Z,28.63
2023-04-11T03:33:07.958Z,28.63
2023-04-11T03:34:07.984Z,28.62
2023-04-11T03:35:08.031Z,28.64
2023-04-11T03:36:08.107Z,28.66
2023-04-11T03:37:08.111Z,28.68
2023-04-11T03:38:08.140Z,28.66
2023-04-11T03:39:08.198Z,28.64
2023-04-11T03:40:08.200Z,28.65
2023-04-11T03:41:08.212Z,28.66
2023-04-11T03:42:08.245Z,28.62
2023-04-11T03:43:08.288Z,28.65
2023-04-11T03:44:08.341Z,28.67
2023-04-11T03:45:08.376Z,28.64
2023-04-11T03:46:08.456Z,28.68
2023-04-11T03:47:08.478Z,28.62
2023-04-11T03:48:08.628Z,28.62
2023-04-11T03:49:08.619Z,28.64
2023-04-11T03:50:08.677Z,28.65
2023-04-11T03:51:08.720Z,28.64
2023-04-11T03:52:08.775Z,28.61
2023-04-11T03:53:08.864Z,28.64
2023-04-11T03:54:08.906Z,28.68
2023-04-11T03:55:08.959Z,28.64
2023-04-11T03:56:08.991Z,28.65
2023-04-11T03:57:09.029Z,28.62
2023-04-11T03:58:09.073Z,28.65
2023-04-11T03:59:09.088Z,28.64
2023-04-11T04:00:09.173Z,28.65
2023-04-11T04:01:09.238Z,28.62
2023-04-11T04:02:09.932Z,28.65
2023-04-11T04:03:09.502Z,28.67
2023-04-11T04:04:09.605Z,28.65
2023-04-11T04:05:09.468Z,28.65
2023-04-11T04:06:09.462Z,28.64
2023-04-11T04:07:09.474Z,28.65
2023-04-11T04:08:09.541Z,28.64
2023-04-11T04:09:09.575Z,28.62
2023-04-11T04:10:09.652Z,28.65
2023-04-11T04:11:09.688Z,28.62
2023-04-11T04:12:09.723Z,28.67
2023-04-11T04:13:09.772Z,28.67
2023-04-11T04:14:09.806Z,28.64
2023-04-11T04:15:09.835Z,28.64
2023-04-11T04:16:09.883Z,28.65
2023-04-11T04:17:09.880Z,28.65
2023-04-11T04:18:09.945Z,28.65
2023-04-11T04:19:09.981Z,28.61
2023-04-11T04:20:10.047Z,28.60
2023-04-11T04:21:10.103Z,28.64
2023-04-11T04:22:10.170Z,28.67
2023-04-11T04:23:10.239Z,28.65
2023-04-11T04:24:10.288Z,28.67
2023-04-11T04:25:10.351Z,28.64
2023-04-11T04:26:10.440Z,28.68
2023-04-11T04:27:10.522Z,28.67
2023-04-11T04:28:10.619Z,28.64
2023-04-11T04:29:10.674Z,28.67
2023-04-11T04:30:10.739Z,28.70
2023-04-11T04:31:10.800Z,28.64
2023-04-11T04:32:11.111Z,28.67
2023-04-11T04:33:10.986Z,28.68
2023-04-11T04:34:11.002Z,28.65
2023-04-11T04:35:10.999Z,28.64
2023-04-11T04:36:11.155Z,28.64
2023-04-11T04:37:11.097Z,28.63
2023-04-11T04:38:11.172Z,28.67
2023-04-11T04:39:11.257Z,28.65
2023-04-11T04:40:11.325Z,28.67
2023-04-11T04:41:11.369Z,28.67
2023-04-11T04:42:11.424Z,28.64
2023-04-11T04:43:11.563Z,28.62
2023-04-11T04:44:11.578Z,28.64
2023-04-11T04:45:11.658Z,28.64
2023-04-11T04:46:11.788Z,28.65
2023-04-11T04:47:11.831Z,28.68
2023-04-11T04:48:11.907Z,28.66
2023-04-11T04:49:12.006Z,28.67
2023-04-11T04:50:12.088Z,28.66
2023-04-11T04:51:12.174Z,28.61
2023-04-11T04:52:12.262Z,28.71
2023-04-11T04:53:12.357Z,28.63
2023-04-11T04:54:12.450Z,28.70
2023-04-11T04:55:12.536Z,28.70
2023-04-11T04:56:12.619Z,28.62
2023-04-11T04:57:12.721Z,28.63
2023-04-11T04:58:12.795Z,28.64
2023-04-11T04:59:12.861Z,28.68
2023-04-11T05:00:12.946Z,28.71
2023-04-11T05:01:13.070Z,28.66
2023-04-11T05:02:13.227Z,28.64
2023-04-11T05:03:13.345Z,28.66
2023-04-11T05:04:13.569Z,28.66
2023-04-11T05:05:13.352Z,28.67
2023-04-11T05:06:13.424Z,28.60
2023-04-11T05:07:13.494Z,28.67
2023-04-11T05:08:13.551Z,28.64
2023-04-11T05:09:13.615Z,28.64
2023-04-11T05:10:13.702Z,28.66
2023-04-11T05:11:13.815Z,28.64
2023-04-11T05:12:13.911Z,28.66
2023-04-11T05:13:13.934Z,28.66
2023-04-11T05:14:14.013Z,28.64
2023-04-11T05:15:14.092Z,28.64
2023-04-11T05:16:14.199Z,28.66
2023-04-11T05:17:14.229Z,28.68
2023-04-11T05:18:14.316Z,28.62
2023-04-11T05:19:14.397Z,28.63
2023-04-11T05:20:14.471Z,28.62
2023-04-11T05:21:14.540Z,28.58
2023-04-11T05:22:14.613Z,28.62
2023-04-11T05:23:14.701Z,28.94
2023-04-11T05:24:14.772Z,29.04
2023-04-11T05:25:14.840Z,29.22
2023-04-11T05:26:14.927Z,29.77
2023-04-11T05:27:15.008Z,30.53
2023-04-11T05:28:15.088Z,30.39
2023-04-11T05:29:15.143Z,30.35
2023-04-11T05:30:15.239Z,30.62
2023-04-11T05:31:15.348Z,31.31
2023-04-11T05:32:15.277Z,31.69
2023-04-11T05:33:15.327Z,32.16
2023-04-11T05:34:15.359Z,32.25
2023-04-11T05:35:15.540Z,32.66
2023-04-11T05:36:15.487Z,32.98
2023-04-11T05:37:16.707Z,32.79
2023-04-11T05:38:15.422Z,33.33
2023-04-11T05:39:18.294Z,33.34
2023-04-11T05:40:16.291Z,33.55
2023-04-11T05:41:15.424Z,33.58
2023-04-11T05:42:15.430Z,33.76
2023-04-11T05:43:15.423Z,33.95
2023-04-11T05:44:15.404Z,34.30
2023-04-11T05:45:15.402Z,34.39
2023-04-11T05:46:15.424Z,34.58
2023-04-11T05:47:15.419Z,34.46
2023-04-11T05:48:16.164Z,34.83
2023-04-11T05:49:15.363Z,34.97
2023-04-11T05:50:15.352Z,35.17
2023-04-11T05:51:15.360Z,35.08
2023-04-11T05:52:15.337Z,35.44
2023-04-11T05:53:15.332Z,35.31
2023-04-11T05:54:15.335Z,35.60
2023-04-11T05:55:15.323Z,35.74
2023-04-11T05:56:15.308Z,36.05
2023-04-11T05:57:15.296Z,36.02
2023-04-11T05:58:15.284Z,36.03
2023-04-11T05:59:15.283Z,36.26
2023-04-11T06:00:15.294Z,36.48
2023-04-11T06:01:15.257Z,36.52
2023-04-11T06:02:15.359Z,36.51
2023-04-11T06:03:15.331Z,36.73
2023-04-11T06:04:15.312Z,36.87
2023-04-11T06:05:15.278Z,36.86
2023-04-11T06:06:15.217Z,37.21
2023-04-11T06:07:15.206Z,37.04
2023-04-11T06:08:15.192Z,37.14
2023-04-11T06:09:15.207Z,37.32
2023-04-11T06:10:15.188Z,37.22
2023-04-11T06:11:15.174Z,37.15
2023-04-11T06:12:15.168Z,37.50
2023-04-11T06:13:15.166Z,37.74
2023-04-11T06:14:15.231Z,37.90
2023-04-11T06:15:15.266Z,38.01
2023-04-11T06:16:15.327Z,38.13
2023-04-11T06:17:15.344Z,38.28
2023-04-11T06:18:15.400Z,38.34
2023-04-11T06:19:15.440Z,38.70
2023-04-11T06:20:15.510Z,38.48
2023-04-11T06:21:15.515Z,38.44
2023-04-11T06:22:15.599Z,38.46
2023-04-11T06:23:15.670Z,38.42
2023-04-11T06:24:15.652Z,38.26
2023-04-11T06:25:16.316Z,38.19
2023-04-11T06:26:15.738Z,38.17
2023-04-11T06:27:15.799Z,38.20
2023-04-11T06:28:15.854Z,38.08
2023-04-11T06:29:15.897Z,38.00
2023-04-11T06:30:16.888Z,37.93
2023-04-11T06:31:15.930Z,37.89
2023-04-11T06:32:15.868Z,37.98
2023-04-11T06:33:15.885Z,37.90
2023-04-11T06:34:15.860Z,37.84
2023-04-11T06:35:15.855Z,37.80
2023-04-11T06:36:15.918Z,37.80
2023-04-11T06:37:15.850Z,37.84
2023-04-11T06:38:15.850Z,37.91
2023-04-11T06:39:15.849Z,37.89
2023-04-11T06:40:15.840Z,37.75
2023-04-11T06:41:15.835Z,37.74
2023-04-11T06:42:15.825Z,37.79
2023-04-11T06:43:15.820Z,37.63
2023-04-11T06:44:16.960Z,37.63
2023-04-11T06:45:15.802Z,37.59
2023-04-11T06:46:15.819Z,37.57
2023-04-11T06:47:15.799Z,37.64
2023-04-11T06:48:15.794Z,37.65
2023-04-11T06:49:15.786Z,37.64
2023-04-11T06:50:15.773Z,37.70
2023-04-11T06:51:15.780Z,37.63
2023-04-11T06:52:15.762Z,37.64
2023-04-11T06:53:15.757Z,37.68
2023-04-11T06:54:15.755Z,37.60
2023-04-11T06:55:15.801Z,37.64
2023-04-11T06:56:15.733Z,37.62
2023-04-11T06:57:15.724Z,37.58
2023-04-11T06:58:15.707Z,37.59
2023-04-11T06:59:15.730Z,37.55
2023-04-11T07:00:15.707Z,37.59
2023-04-11T07:01:15.752Z,37.59
2023-04-11T07:02:15.766Z,37.56
2023-04-11T07:03:15.770Z,37.52
2023-04-11T07:04:15.753Z,37.54
2023-04-11T07:05:15.706Z,37.56
2023-04-11T07:06:15.698Z,37.54
2023-04-11T07:07:15.695Z,37.59
2023-04-11T07:08:15.694Z,37.56
2023-04-11T07:09:15.679Z,37.52
2023-04-11T07:10:15.714Z,37.45
2023-04-11T07:11:15.744Z,37.46
2023-04-11T07:12:16.322Z,37.41
2023-04-11T07:13:15.806Z,37.43
2023-04-11T07:14:15.819Z,37.39
2023-04-11T07:15:15.851Z,37.41
2023-04-11T07:16:16.062Z,37.35
2023-04-11T07:17:15.901Z,37.39
2023-04-11T07:18:15.958Z,37.31
2023-04-11T07:19:15.974Z,37.31
2023-04-11T07:20:16.002Z,37.30
2023-04-11T07:21:16.031Z,37.25
2023-04-11T07:22:16.066Z,37.24
2023-04-11T07:23:16.116Z,37.61
2023-04-11T07:24:16.147Z,36.92
2023-04-11T07:25:16.176Z,35.72
2023-04-11T07:26:16.210Z,35.22
2023-04-11T07:27:16.255Z,33.67
2023-04-11T07:28:16.285Z,32.94
2023-04-11T07:29:16.342Z,32.55
2023-04-11T07:30:16.411Z,31.99
2023-04-11T07:31:16.469Z,31.42
2023-04-11T07:32:16.523Z,31.32
2023-04-11T07:33:16.591Z,31.32
2023-04-11T07:34:16.649Z,30.95
2023-04-11T07:35:16.711Z,30.89
2023-04-11T07:36:16.794Z,30.34
2023-04-11T07:37:16.823Z,30.67
2023-04-11T07:38:16.889Z,30.89
2023-04-11T07:39:16.947Z,31.19
2023-04-11T07:40:16.994Z,31.14
2023-04-11T07:41:17.053Z,30.96
2023-04-11T07:42:17.052Z,31.67
2023-04-11T07:43:17.072Z,30.53
2023-04-11T07:44:17.102Z,30.81
2023-04-11T07:45:17.108Z,32.12
2023-04-11T07:46:17.157Z,31.62
2023-04-11T07:47:17.124Z,31.61
2023-04-11T07:48:17.131Z,31.26
2023-04-11T07:49:17.142Z,30.79
2023-04-11T07:50:17.126Z,31.38
2023-04-11T07:51:17.170Z,31.48
2023-04-11T07:52:17.125Z,31.85
2023-04-11T07:53:17.146Z,32.07
2023-04-11T07:54:17.123Z,32.08
2023-04-11T07:55:17.168Z,31.87
2023-04-11T07:56:17.145Z,31.97
2023-04-11T07:57:17.144Z,32.35
2023-04-11T07:58:17.178Z,32.28
2023-04-11T07:59:17.186Z,32.45
2023-04-11T08:00:17.218Z,32.49
2023-04-11T08:01:17.249Z,32.50
2023-04-11T08:02:17.383Z,32.60
2023-04-11T08:03:17.583Z,32.89
2023-04-11T08:04:17.481Z,32.94
2023-04-11T08:05:17.483Z,32.97
2023-04-11T08:06:17.427Z,32.62
2023-04-11T08:07:17.436Z,32.60
2023-04-11T08:08:17.446Z,32.69
2023-04-11T08:09:17.459Z,32.79
2023-04-11T08:10:17.519Z,32.65
2023-04-11T08:11:17.570Z,32.80
2023-04-11T08:12:17.569Z,32.98
2023-04-11T08:13:17.575Z,32.80
2023-04-11T08:14:17.649Z,33.12
2023-04-11T08:15:17.625Z,33.13
2023-04-11T08:16:17.691Z,33.19
2023-04-11T08:17:27.837Z,33.31
2023-04-11T08:18:18.709Z,33.48
2023-04-11T08:19:17.672Z,33.67
2023-04-11T08:20:17.653Z,33.79
2023-04-11T08:21:17.659Z,33.91
2023-04-11T08:22:17.635Z,34.09
2023-04-11T08:23:17.619Z,34.49
2023-04-11T08:24:17.858Z,34.31
2023-04-11T08:25:17.617Z,34.89
2023-04-11T08:26:17.608Z,34.89
2023-04-11T08:27:17.650Z,35.30
2023-04-11T08:28:17.711Z,35.78
2023-04-11T08:29:17.752Z,36.00
2023-04-11T08:30:17.818Z,36.14
2023-04-11T08:31:18.121Z,36.43
2023-04-11T08:32:18.167Z,36.38
2023-04-11T08:33:17.941Z,36.44
2023-04-11T08:34:17.975Z,37.01
2023-04-11T08:35:18.017Z,36.82
2023-04-11T08:36:18.102Z,36.76
2023-04-11T08:37:18.100Z,36.87
2023-04-11T08:38:18.220Z,37.06
2023-04-11T08:39:18.176Z,37.19
2023-04-11T08:40:18.211Z,37.16
2023-04-11T08:41:18.233Z,37.31
2023-04-11T08:42:18.259Z,37.63
2023-04-11T08:43:18.310Z,37.41
2023-04-11T08:44:18.324Z,37.63
2023-04-11T08:45:18.361Z,38.14
2023-04-11T08:46:18.421Z,38.00
2023-04-11T08:47:18.421Z,38.04
2023-04-11T08:48:19.382Z,37.95
2023-04-11T08:49:18.345Z,38.42
2023-04-11T08:50:18.337Z,38.50
2023-04-11T08:51:18.361Z,38.53
2023-04-11T08:52:18.265Z,38.46
2023-04-11T08:53:18.245Z,38.76
2023-04-11T08:54:18.227Z,38.57
2023-04-11T08:55:18.203Z,38.98
2023-04-11T08:56:18.172Z,39.09
2023-04-11T08:57:18.857Z,39.35
2023-04-11T08:58:18.128Z,39.30
2023-04-11T08:59:18.099Z,39.32
2023-04-11T09:00:18.110Z,39.18
2023-04-11T09:01:18.144Z,39.33
2023-04-11T09:02:18.361Z,39.43
2023-04-11T09:03:18.305Z,39.80
2023-04-11T09:04:18.201Z,39.65
2023-04-11T09:05:18.190Z,39.79
2023-04-11T09:06:18.198Z,40.24
2023-04-11T09:07:18.211Z,40.25
2023-04-11T09:08:18.230Z,40.37
2023-04-11T09:09:18.235Z,40.28
2023-04-11T09:10:18.242Z,40.85
2023-04-11T09:11:18.245Z,40.63
2023-04-11T09:12:18.255Z,41.02
2023-04-11T09:13:18.260Z,41.31
2023-04-11T09:14:18.317Z,41.35
2023-04-11T09:15:18.290Z,41.52
2023-04-11T09:16:18.348Z,41.89
2023-04-11T09:17:18.313Z,41.81
2023-04-11T09:18:18.314Z,41.82
2023-04-11T09:19:18.335Z,42.06
2023-04-11T09:20:18.351Z,42.19
2023-04-11T09:21:18.874Z,41.84
2023-04-11T09:22:18.381Z,41.84
2023-04-11T09:23:18.403Z,41.85
2023-04-11T09:24:18.422Z,41.65
2023-04-11T09:25:18.468Z,41.93
2023-04-11T09:26:18.465Z,41.83
2023-04-11T09:27:18.480Z,41.93
2023-04-11T09:28:18.492Z,42.26
2023-04-11T09:29:18.507Z,42.01
2023-04-11T09:30:18.528Z,42.03
2023-04-11T09:31:18.603Z,42.18
2023-04-11T09:32:18.556Z,42.19
2023-04-11T09:33:18.557Z,42.54
2023-04-11T09:34:18.571Z,43.08
2023-04-11T09:35:18.608Z,42.73
2023-04-11T09:36:18.601Z,42.89
2023-04-11T09:37:18.601Z,43.06
2023-04-11T09:38:18.619Z,43.16
2023-04-11T09:39:18.615Z,43.23
2023-04-11T09:40:18.621Z,43.30
2023-04-11T09:41:18.644Z,43.21
2023-04-11T09:42:18.652Z,43.22
2023-04-11T09:43:20.329Z,43.40
2023-04-11T09:44:19.368Z,43.42
2023-04-11T09:45:18.717Z,43.70
2023-04-11T09:46:18.842Z,43.57
2023-04-11T09:47:18.715Z,43.36
2023-04-11T09:48:18.739Z,43.69
2023-04-11T09:49:18.760Z,43.70
2023-04-11T09:50:18.772Z,44.08
2023-04-11T09:51:34.367Z,44.08
2023-04-11T09:52:19.724Z,44.13
2023-04-11T09:53:18.695Z,44.22
2023-04-11T09:54:18.663Z,44.45
2023-04-11T09:55:18.624Z,44.46
2023-04-11T09:56:18.595Z,44.61
2023-04-11T09:57:18.558Z,44.78
2023-04-11T09:58:18.529Z,44.64
2023-04-11T09:59:18.507Z,44.73
2023-04-11T10:00:18.466Z,44.69
2023-04-11T10:01:18.469Z,44.52
2023-04-11T10:02:18.460Z,45.18
2023-04-11T10:03:18.522Z,44.90
2023-04-11T10:04:18.361Z,44.47
2023-04-11T10:05:18.294Z,44.67
2023-04-11T10:06:18.281Z,45.38
2023-04-11T10:07:18.254Z,44.89
2023-04-11T10:08:18.208Z,45.12
2023-04-11T10:09:18.161Z,44.53
2023-04-11T10:10:18.122Z,44.75
2023-04-11T10:11:18.098Z,44.65
2023-04-11T10:12:18.057Z,44.58
2023-04-11T10:13:18.039Z,44.42
2023-04-11T10:14:18.050Z,44.33
2023-04-11T10:15:18.057Z,44.14
2023-04-11T10:16:18.089Z,44.14
2023-04-11T10:17:22.152Z,44.13
2023-04-11T10:18:19.061Z,44.10
2023-04-11T10:19:18.034Z,44.06
2023-04-11T10:20:18.010Z,44.07
2023-04-11T10:21:17.980Z,44.10
2023-04-11T10:22:17.956Z,44.13
2023-04-11T10:23:17.935Z,44.16
2023-04-11T10:24:18.809Z,44.26
2023-04-11T10:25:18.818Z,44.23
2023-04-11T10:26:17.873Z,44.23
2023-04-11T10:27:18.806Z,44.16
2023-04-11T10:28:17.835Z,44.29
2023-04-11T10:29:17.806Z,44.34
2023-04-11T10:30:17.781Z,44.29
2023-04-11T10:31:17.824Z,44.23
2023-04-11T10:32:17.736Z,44.29
2023-04-11T10:33:17.873Z,44.15
2023-04-11T10:34:17.684Z,44.19
2023-04-11T10:35:17.690Z,44.18
2023-04-11T10:36:17.685Z,44.10
2023-04-11T10:37:17.646Z,44.14
2023-04-11T10:38:17.618Z,44.14
2023-04-11T10:39:17.608Z,44.13
2023-04-11T10:40:18.398Z,44.09
2023-04-11T10:41:17.538Z,44.08
2023-04-11T10:42:18.412Z,44.02
2023-04-11T10:43:17.501Z,44.00
2023-04-11T10:44:17.487Z,43.94
2023-04-11T10:45:17.449Z,43.98
2023-04-11T10:46:17.448Z,44.01
2023-04-11T10:47:17.424Z,43.95
2023-04-11T10:48:17.373Z,43.91
2023-04-11T10:49:17.343Z,43.94
2023-04-11T10:50:17.328Z,43.97
2023-04-11T10:51:17.303Z,43.83
2023-04-11T10:52:17.360Z,43.80
2023-04-11T10:53:17.408Z,43.87
2023-04-11T10:54:17.450Z,43.80
2023-04-11T10:55:17.520Z,43.82
2023-04-11T10:56:17.571Z,43.71
2023-04-11T10:57:17.620Z,43.69
2023-04-11T10:58:17.669Z,43.80
2023-04-11T10:59:17.729Z,43.66
2023-04-11T11:00:17.775Z,43.76
2023-04-11T11:01:26.688Z,43.72
2023-04-11T11:02:18.900Z,43.70
2023-04-11T11:03:17.831Z,43.69
2023-04-11T11:04:17.978Z,43.74
2023-04-11T11:05:17.751Z,43.72
2023-04-11T11:06:17.739Z,43.76
2023-04-11T11:07:17.729Z,43.67
2023-04-11T11:08:17.720Z,43.67
2023-04-11T11:09:18.399Z,43.62
2023-04-11T11:10:17.734Z,43.63
2023-04-11T11:11:17.749Z,43.63
2023-04-11T11:12:17.805Z,43.59
2023-04-11T11:13:17.856Z,43.59
2023-04-11T11:14:17.877Z,43.50
2023-04-11T11:15:17.929Z,43.46
2023-04-11T11:16:17.999Z,43.46
2023-04-11T11:17:18.030Z,43.39
2023-04-11T11:18:18.073Z,43.36
2023-04-11T11:19:18.110Z,43.39
2023-04-11T11:20:18.202Z,43.42
2023-04-11T11:21:26.694Z,43.35
2023-04-11T11:22:19.225Z,43.28
2023-04-11T11:23:18.151Z,43.27
2023-04-11T11:24:18.147Z,43.29
2023-04-11T11:25:18.138Z,43.21
2023-04-11T11:26:18.125Z,43.21
2023-04-11T11:27:18.106Z,43.16
2023-04-11T11:28:18.095Z,43.15
2023-04-11T11:29:18.076Z,43.14
2023-04-11T11:30:18.081Z,43.09
2023-04-11T11:31:18.200Z,43.03
2023-04-11T11:32:18.188Z,42.99
2023-04-11T11:33:18.245Z,42.96
2023-04-11T11:35:18.278Z,42.88
2023-04-11T11:36:18.289Z,42.85
2023-04-11T11:37:18.271Z,42.83
2023-04-11T11:38:18.275Z,42.84
2023-04-11T11:39:19.485Z,42.84
2023-04-11T11:40:18.239Z,42.78
2023-04-11T11:41:18.237Z,42.77
2023-04-11T11:42:18.321Z,42.76
2023-04-11T11:43:18.270Z,42.72
2023-04-11T11:44:18.322Z,42.72
2023-04-11T11:45:18.371Z,42.70
2023-04-11T11:46:18.475Z,42.62
2023-04-11T11:47:18.505Z,42.66
2023-04-11T11:48:18.565Z,42.68
2023-04-11T11:49:18.633Z,42.68
2023-04-11T11:50:18.692Z,42.65
2023-04-11T11:51:18.752Z,42.64
2023-04-11T11:52:18.765Z,42.57
2023-04-11T11:53:18.782Z,42.54
2023-04-11T11:54:18.819Z,42.57
2023-04-11T11:55:18.876Z,42.52
2023-04-11T11:56:18.925Z,42.52
2023-04-11T11:57:18.929Z,42.45
2023-04-11T11:58:18.985Z,42.48
2023-04-11T11:59:19.014Z,42.51
2023-04-11T12:00:19.053Z,42.49
2023-04-11T12:01:19.097Z,42.48
2023-04-11T12:02:19.190Z,42.48
2023-04-11T12:03:19.328Z,42.46
2023-04-11T12:04:19.366Z,42.43
2023-04-11T12:05:19.234Z,42.41
2023-04-11T12:06:19.258Z,42.44
2023-04-11T12:07:19.294Z,42.43
2023-04-11T12:08:19.314Z,42.38
2023-04-11T12:09:19.344Z,42.39
2023-04-11T12:10:19.355Z,42.30
2023-04-11T12:11:19.341Z,42.30
2023-04-11T12:12:19.348Z,42.23
2023-04-11T12:13:19.340Z,42.25
2023-04-11T12:14:19.462Z,42.18
2023-04-11T12:15:19.399Z,42.19
2023-04-11T12:16:19.510Z,42.14
2023-04-11T12:17:19.542Z,42.14
2023-04-11T12:18:19.535Z,42.13
2023-04-11T12:19:19.598Z,42.14
2023-04-11T12:20:19.649Z,42.12
2023-04-11T12:21:19.701Z,42.09
2023-04-11T12:22:19.715Z,42.06
2023-04-11T12:23:19.748Z,42.10
2023-04-11T12:24:19.749Z,42.02
2023-04-11T12:25:19.751Z,42.05
2023-04-11T12:26:19.769Z,42.08
2023-04-11T12:27:19.793Z,42.08
2023-04-11T12:28:19.813Z,42.02
2023-04-11T12:29:19.819Z,42.05
2023-04-11T12:30:19.831Z,42.01
2023-04-11T12:31:19.937Z,42.08
2023-04-11T12:32:19.903Z,42.00
2023-04-11T12:33:19.891Z,42.02
2023-04-11T12:34:19.904Z,42.02
2023-04-11T12:35:19.912Z,42.01
2023-04-11T12:36:19.926Z,42.00
2023-04-11T12:37:19.897Z,41.99
2023-04-11T12:38:19.918Z,41.95
2023-04-11T12:39:19.941Z,41.97
2023-04-11T12:40:19.950Z,41.89
2023-04-11T12:41:32.187Z,41.92
2023-04-11T12:42:23.771Z,41.92
2023-04-11T12:43:19.946Z,41.91
2023-04-11T12:44:19.933Z,41.86
2023-04-11T12:45:19.914Z,41.90
2023-04-11T12:46:20.038Z,41.94
2023-04-11T12:47:19.926Z,41.94
2023-04-11T12:48:19.901Z,41.90
2023-04-11T12:49:19.897Z,41.95
2023-04-11T12:50:19.889Z,41.91
2023-04-11T12:51:19.863Z,41.92
2023-04-11T12:52:19.853Z,41.93
2023-04-11T12:53:19.842Z,41.92